Meridian — EI6085 — position and weather

sailwx.info

Track history (hours):
 
Tides and Currents Weather Stations Pressure Air Temp Water Temp Dewpoint Dewpoint Depression Visibility Wind Speed Wind Dir Waves Ship Positions

Meridian

Last reported at 2016-May-23 15:32 UTC. Time now 2016-May-24 06:01 UTC.
Position N 54°38' W 008°27'.

Length 12 m.

Type: Fishing. MMSI: 250107450.

Date/timePositionNaut miles runAvg speedWind from/ knotsBaromVisibWave heightAir tempDewpointWater temp
2016-May-23 15:32N 54°38' W 008°27'2 2.0
2016-May-23 14:33N 54°36' W 008°28'3 3.0
2016-May-23 13:33N 54°35' W 008°33'2 1.8
2016-May-23 12:31N 54°36' W 008°35'1 1.4
2016-May-23 11:32N 54°35' W 008°33'0 0.4
2016-May-23 10:11N 54°35' W 008°33'2 3.0
2016-May-23 09:32N 54°36' W 008°29'3 2.8
2016-May-23 08:32N 54°38' W 008°27'0 0.0
2016-May-23 07:32N 54°38' W 008°27'0 0.0
2016-May-22 16:09N 54°38' W 008°27'1 2.2
2016-May-22 15:33N 54°37' W 008°27'3 2.9
2016-May-22 14:33N 54°35' W 008°32'2 1.9
2016-May-22 13:33N 54°36' W 008°34'1 0.6
2016-May-22 12:15N 54°36' W 008°36'1 0.6
2016-May-22 11:16N 54°36' W 008°35'1 1.4
2016-May-22 10:28N 54°35' W 008°33'2 1.9
2016-May-22 09:19N 54°36' W 008°30'3 3.9
2016-May-22 08:31N 54°38' W 008°27'0 0.0
2016-May-22 07:31N 54°38' W 008°27'0 0.0
2016-May-21 16:17N 54°38' W 008°27'3 0.4
2016-May-21 08:30N 54°36' W 008°30'3 3.3
2016-May-21 07:33N 54°38' W 008°27'0 0.0
2016-May-20 16:31N 54°38' W 008°27'3 0.6
2016-May-20 11:27N 54°36' W 008°30'2 1.8
2016-May-20 10:33N 54°36' W 008°27'2 1.7
2016-May-20 09:32N 54°38' W 008°27'0 0.0
2016-May-20 08:32N 54°38' W 008°27'0 0.0
2016-May-20 07:33N 54°38' W 008°27'0 0.0
2016-May-19 16:05N 54°38' W 008°27'0 0.1
2016-May-19 15:11N 54°38' W 008°27'0 0.1
2016-May-19 14:31N 54°38' W 008°27'1 0.7
2016-May-19 13:33N 54°37' W 008°27'1 0.7
2016-May-19 12:33N 54°38' W 008°27'  
Track history (hours):
 
Tides and Currents Weather Stations Pressure Air Temp Water Temp Dewpoint Dewpoint Depression Visibility Wind Speed Wind Dir Waves Ship Positions

Meridian

Last reported at 2016-May-23 15:32 UTC. Time now 2016-May-24 06:01 UTC.
Position N 54°38' W 008°27'.

Length 12 m.

Type: Fishing. MMSI: 250107450.

Date/timePositionNaut miles runAvg speedWind from/ knotsBaromVisibWave heightAir tempDewpointWater temp
2016-May-23 15:32N 54°38' W 008°27'2 2.0
2016-May-23 14:33N 54°36' W 008°28'3 3.0
2016-May-23 13:33N 54°35' W 008°33'2 1.8
2016-May-23 12:31N 54°36' W 008°35'1 1.4
2016-May-23 11:32N 54°35' W 008°33'0 0.4
2016-May-23 10:11N 54°35' W 008°33'2 3.0
2016-May-23 09:32N 54°36' W 008°29'3 2.8
2016-May-23 08:32N 54°38' W 008°27'0 0.0
2016-May-23 07:32N 54°38' W 008°27'0 0.0
2016-May-22 16:09N 54°38' W 008°27'1 2.2
2016-May-22 15:33N 54°37' W 008°27'3 2.9
2016-May-22 14:33N 54°35' W 008°32'2 1.9
2016-May-22 13:33N 54°36' W 008°34'1 0.6
2016-May-22 12:15N 54°36' W 008°36'1 0.6
2016-May-22 11:16N 54°36' W 008°35'1 1.4
2016-May-22 10:28N 54°35' W 008°33'2 1.9
2016-May-22 09:19N 54°36' W 008°30'3 3.9
2016-May-22 08:31N 54°38' W 008°27'0 0.0
2016-May-22 07:31N 54°38' W 008°27'0 0.0
2016-May-21 16:17N 54°38' W 008°27'3 0.4
2016-May-21 08:30N 54°36' W 008°30'3 3.3
2016-May-21 07:33N 54°38' W 008°27'0 0.0
2016-May-20 16:31N 54°38' W 008°27'3 0.6
2016-May-20 11:27N 54°36' W 008°30'2 1.8
2016-May-20 10:33N 54°36' W 008°27'2 1.7
2016-May-20 09:32N 54°38' W 008°27'0 0.0
2016-May-20 08:32N 54°38' W 008°27'0 0.0
2016-May-20 07:33N 54°38' W 008°27'0 0.0
2016-May-19 16:05N 54°38' W 008°27'0 0.1
2016-May-19 15:11N 54°38' W 008°27'0 0.1
2016-May-19 14:31N 54°38' W 008°27'1 0.7
2016-May-19 13:33N 54°37' W 008°27'1 0.7
2016-May-19 12:33N 54°38' W 008°27'  

Dump ship's entire track history